sensor_id;sensor_type;location;lat;lon;timestamp;pressure;altitude;pressure_sealevel;temperature;humidity
81909;BME280;71372;43.514;1.512;2023-10-19T00:00:48;98368.22;;;17.88;78.75
81909;BME280;71372;43.514;1.512;2023-10-19T00:03:18;98367.34;;;17.88;78.72
81909;BME280;71372;43.514;1.512;2023-10-19T00:05:45;98359.44;;;17.86;78.89
81909;BME280;71372;43.514;1.512;2023-10-19T00:08:12;98344.28;;;17.85;79.02
81909;BME280;71372;43.514;1.512;2023-10-19T00:10:39;98352.91;;;17.89;78.90
81909;BME280;71372;43.514;1.512;2023-10-19T00:13:10;98352.06;;;17.88;79.01
81909;BME280;71372;43.514;1.512;2023-10-19T00:15:38;98345.50;;;17.91;79.26
81909;BME280;71372;43.514;1.512;2023-10-19T00:18:23;98338.28;;;17.91;79.00
81909;BME280;71372;43.514;1.512;2023-10-19T00:20:51;98328.34;;;17.92;79.01
81909;BME280;71372;43.514;1.512;2023-10-19T00:23:22;98311.19;;;17.93;79.07
81909;BME280;71372;43.514;1.512;2023-10-19T00:25:56;98312.19;;;17.92;78.85
81909;BME280;71372;43.514;1.512;2023-10-19T00:28:22;98303.28;;;17.91;79.06
81909;BME280;71372;43.514;1.512;2023-10-19T00:30:48;98309.84;;;17.89;79.46
81909;BME280;71372;43.514;1.512;2023-10-19T00:33:18;98307.44;;;17.86;79.58
81909;BME280;71372;43.514;1.512;2023-10-19T00:35:46;98301.06;;;17.87;79.96
81909;BME280;71372;43.514;1.512;2023-10-19T00:38:13;98291.97;;;17.88;80.60
81909;BME280;71372;43.514;1.512;2023-10-19T00:40:56;98289.66;;;17.93;80.12
81909;BME280;71372;43.514;1.512;2023-10-19T00:43:30;98288.63;;;17.94;80.60
81909;BME280;71372;43.514;1.512;2023-10-19T00:46:03;98288.31;;;17.97;81.01
81909;BME280;71372;43.514;1.512;2023-10-19T00:48:33;98265.59;;;17.91;82.10
81909;BME280;71372;43.514;1.512;2023-10-19T00:51:00;98268.44;;;17.98;81.12
81909;BME280;71372;43.514;1.512;2023-10-19T00:53:36;98264.59;;;18.00;81.48
81909;BME280;71372;43.514;1.512;2023-10-19T00:56:04;98251.47;;;18.05;80.89
81909;BME280;71372;43.514;1.512;2023-10-19T00:58:32;98229.59;;;18.08;80.91
81909;BME280;71372;43.514;1.512;2023-10-19T01:01:04;98215.63;;;18.05;81.30
81909;BME280;71372;43.514;1.512;2023-10-19T01:03:34;98214.59;;;18.06;81.36
81909;BME280;71372;43.514;1.512;2023-10-19T01:06:04;98219.16;;;18.05;81.23
81909;BME280;71372;43.514;1.512;2023-10-19T01:08:38;98214.94;;;18.03;81.59
81909;BME280;71372;43.514;1.512;2023-10-19T01:11:10;98205.03;;;18.03;81.67
81909;BME280;71372;43.514;1.512;2023-10-19T01:13:41;98209.41;;;18.04;81.78
81909;BME280;71372;43.514;1.512;2023-10-19T01:16:14;98206.69;;;18.04;81.96
81909;BME280;71372;43.514;1.512;2023-10-19T01:18:50;98218.13;;;18.06;81.79
81909;BME280;71372;43.514;1.512;2023-10-19T01:21:23;98221.69;;;18.07;81.85
81909;BME280;71372;43.514;1.512;2023-10-19T01:24:08;98223.53;;;18.06;82.24
81909;BME280;71372;43.514;1.512;2023-10-19T01:26:35;98227.72;;;18.09;81.80
81909;BME280;71372;43.514;1.512;2023-10-19T01:29:03;98225.03;;;18.09;82.28
81909;BME280;71372;43.514;1.512;2023-10-19T01:31:40;98222.72;;;18.14;82.04
81909;BME280;71372;43.514;1.512;2023-10-19T01:34:21;98223.38;;;18.16;81.90
81909;BME280;71372;43.514;1.512;2023-10-19T01:36:48;98212.44;;;18.18;81.96
81909;BME280;71372;43.514;1.512;2023-10-19T01:39:17;98213.28;;;18.18;82.25
81909;BME280;71372;43.514;1.512;2023-10-19T01:41:45;98211.06;;;18.22;81.79
81909;BME280;71372;43.514;1.512;2023-10-19T01:44:11;98209.75;;;18.26;81.97
81909;BME280;71372;43.514;1.512;2023-10-19T01:46:41;98196.09;;;18.27;81.96
81909;BME280;71372;43.514;1.512;2023-10-19T01:49:11;98187.00;;;18.28;81.81
81909;BME280;71372;43.514;1.512;2023-10-19T01:51:37;98190.38;;;18.30;82.34
81909;BME280;71372;43.514;1.512;2023-10-19T01:54:09;98183.63;;;18.34;81.98
81909;BME280;71372;43.514;1.512;2023-10-19T01:56:36;98177.41;;;18.34;82.27
81909;BME280;71372;43.514;1.512;2023-10-19T01:59:04;98173.38;;;18.38;81.91
81909;BME280;71372;43.514;1.512;2023-10-19T02:01:30;98181.13;;;18.41;81.82
81909;BME280;71372;43.514;1.512;2023-10-19T02:03:59;98165.44;;;18.45;81.76
81909;BME280;71372;43.514;1.512;2023-10-19T02:06:30;98166.09;;;18.47;81.82
81909;BME280;71372;43.514;1.512;2023-10-19T02:09:08;98151.47;;;18.49;81.49
81909;BME280;71372;43.514;1.512;2023-10-19T02:11:47;98133.09;;;18.53;81.42
81909;BME280;71372;43.514;1.512;2023-10-19T02:14:15;98119.63;;;18.53;81.24
81909;BME280;71372;43.514;1.512;2023-10-19T02:16:42;98110.72;;;18.44;81.92
81909;BME280;71372;43.514;1.512;2023-10-19T02:19:09;98109.50;;;18.47;81.28
81909;BME280;71372;43.514;1.512;2023-10-19T02:21:35;98106.34;;;18.43;81.69
81909;BME280;71372;43.514;1.512;2023-10-19T02:24:08;98092.50;;;18.46;81.60
81909;BME280;71372;43.514;1.512;2023-10-19T02:26:35;98095.06;;;18.48;81.48
81909;BME280;71372;43.514;1.512;2023-10-19T02:29:04;98080.75;;;18.47;81.45
81909;BME280;71372;43.514;1.512;2023-10-19T02:31:37;98076.19;;;18.48;81.71
81909;BME280;71372;43.514;1.512;2023-10-19T02:34:07;98068.94;;;18.48;81.70
81909;BME280;71372;43.514;1.512;2023-10-19T02:36:34;98068.78;;;18.50;81.49
81909;BME280;71372;43.514;1.512;2023-10-19T02:39:13;98055.47;;;18.48;81.67
81909;BME280;71372;43.514;1.512;2023-10-19T02:41:41;98055.97;;;18.52;81.56
81909;BME280;71372;43.514;1.512;2023-10-19T02:44:09;98058.47;;;18.53;81.42
81909;BME280;71372;43.514;1.512;2023-10-19T02:46:35;98052.25;;;18.45;82.37
81909;BME280;71372;43.514;1.512;2023-10-19T02:49:06;98034.06;;;18.47;82.19
81909;BME280;71372;43.514;1.512;2023-10-19T02:51:38;98022.13;;;18.49;81.61
81909;BME280;71372;43.514;1.512;2023-10-19T02:54:05;98034.56;;;18.50;81.92
81909;BME280;71372;43.514;1.512;2023-10-19T02:56:32;98044.16;;;18.53;82.16
81909;BME280;71372;43.514;1.512;2023-10-19T02:59:02;98025.97;;;18.55;82.43
81909;BME280;71372;43.514;1.512;2023-10-19T03:01:30;98037.75;;;18.54;82.67
81909;BME280;71372;43.514;1.512;2023-10-19T03:04:02;98034.03;;;18.63;82.20
81909;BME280;71372;43.514;1.512;2023-10-19T03:06:31;98030.81;;;18.67;82.20
81909;BME280;71372;43.514;1.512;2023-10-19T03:08:59;98042.13;;;18.71;81.90
81909;BME280;71372;43.514;1.512;2023-10-19T03:11:27;98035.53;;;18.74;82.02
81909;BME280;71372;43.514;1.512;2023-10-19T03:13:54;98032.47;;;18.77;82.03
81909;BME280;71372;43.514;1.512;2023-10-19T03:16:21;98028.41;;;18.81;81.98
81909;BME280;71372;43.514;1.512;2023-10-19T03:18:52;98011.38;;;18.80;82.21
81909;BME280;71372;43.514;1.512;2023-10-19T03:21:20;98011.22;;;18.82;82.11
81909;BME280;71372;43.514;1.512;2023-10-19T03:23:53;98003.25;;;18.88;81.94
81909;BME280;71372;43.514;1.512;2023-10-19T03:26:20;98003.56;;;18.93;81.92
81909;BME280;71372;43.514;1.512;2023-10-19T03:29:02;97994.13;;;18.97;81.50
81909;BME280;71372;43.514;1.512;2023-10-19T03:31:33;97985.00;;;18.98;81.76
81909;BME280;71372;43.514;1.512;2023-10-19T03:34:10;97990.03;;;19.02;81.61
81909;BME280;71372;43.514;1.512;2023-10-19T03:36:35;97990.03;;;19.02;81.56
81909;BME280;71372;43.514;1.512;2023-10-19T03:39:02;97991.25;;;18.99;81.80
81909;BME280;71372;43.514;1.512;2023-10-19T03:41:39;97992.56;;;19.03;81.57
81909;BME280;71372;43.514;1.512;2023-10-19T03:44:11;97989.34;;;19.08;81.37
81909;BME280;71372;43.514;1.512;2023-10-19T03:46:53;97985.63;;;19.09;81.50
81909;BME280;71372;43.514;1.512;2023-10-19T03:49:20;97980.22;;;19.09;81.51
81909;BME280;71372;43.514;1.512;2023-10-19T03:51:47;97989.34;;;19.08;81.43
81909;BME280;71372;43.514;1.512;2023-10-19T03:54:28;97984.78;;;19.08;81.36
81909;BME280;71372;43.514;1.512;2023-10-19T03:56:55;97988.13;;;19.10;81.24
81909;BME280;71372;43.514;1.512;2023-10-19T03:59:27;97981.91;;;19.10;80.97
81909;BME280;71372;43.514;1.512;2023-10-19T04:01:57;97974.84;;;19.09;81.14
81909;BME280;71372;43.514;1.512;2023-10-19T04:04:26;97987.81;;;19.05;81.02
81909;BME280;71372;43.514;1.512;2023-10-19T04:06:52;97999.44;;;19.06;80.95
81909;BME280;71372;43.514;1.512;2023-10-19T04:09:24;98009.25;;;19.07;80.94
81909;BME280;71372;43.514;1.512;2023-10-19T04:11:55;97992.56;;;19.03;80.98
81909;BME280;71372;43.514;1.512;2023-10-19T04:14:21;97973.75;;;18.95;81.42
81909;BME280;71372;43.514;1.512;2023-10-19T04:16:48;97992.91;;;19.00;81.16
81909;BME280;71372;43.514;1.512;2023-10-19T04:19:15;97998.78;;;19.04;80.91
81909;BME280;71372;43.514;1.512;2023-10-19T04:21:42;97991.84;;;19.09;80.55
81909;BME280;71372;43.514;1.512;2023-10-19T04:24:15;97983.94;;;19.08;80.67
81909;BME280;71372;43.514;1.512;2023-10-19T04:26:43;97974.00;;;19.08;80.70
81909;BME280;71372;43.514;1.512;2023-10-19T04:29:09;97966.41;;;19.04;80.53
81909;BME280;71372;43.514;1.512;2023-10-19T04:31:43;97953.94;;;19.03;80.51
81909;BME280;71372;43.514;1.512;2023-10-19T04:34:17;97936.22;;;19.08;80.18
81909;BME280;71372;43.514;1.512;2023-10-19T04:36:50;97931.34;;;19.04;80.20
81909;BME280;71372;43.514;1.512;2023-10-19T04:39:16;97916.00;;;19.04;80.23
81909;BME280;71372;43.514;1.512;2023-10-19T04:41:45;97908.09;;;19.03;79.87
81909;BME280;71372;43.514;1.512;2023-10-19T04:44:14;97915.41;;;18.94;80.10
81909;BME280;71372;43.514;1.512;2023-10-19T04:46:41;97912.56;;;18.95;80.04
81909;BME280;71372;43.514;1.512;2023-10-19T04:49:08;97911.59;;;18.88;79.76
81909;BME280;71372;43.514;1.512;2023-10-19T04:51:34;97934.00;;;18.89;79.77
81909;BME280;71372;43.514;1.512;2023-10-19T04:54:05;97941.25;;;18.88;79.86
81909;BME280;71372;43.514;1.512;2023-10-19T04:56:31;97942.91;;;18.89;79.65
81909;BME280;71372;43.514;1.512;2023-10-19T04:58:57;97940.03;;;18.91;79.44
81909;BME280;71372;43.514;1.512;2023-10-19T05:01:23;97941.25;;;18.88;79.51
81909;BME280;71372;43.514;1.512;2023-10-19T05:03:49;97938.38;;;18.90;79.39
81909;BME280;71372;43.514;1.512;2023-10-19T05:06:15;97941.25;;;18.88;79.60
81909;BME280;71372;43.514;1.512;2023-10-19T05:08:41;97923.25;;;18.81;79.62
81909;BME280;71372;43.514;1.512;2023-10-19T05:11:07;97916.97;;;18.88;79.45
81909;BME280;71372;43.514;1.512;2023-10-19T05:13:35;97913.25;;;18.89;79.35
81909;BME280;71372;43.514;1.512;2023-10-19T05:16:00;97907.91;;;18.81;79.26
81909;BME280;71372;43.514;1.512;2023-10-19T05:18:26;97909.25;;;18.85;79.36
81909;BME280;71372;43.514;1.512;2023-10-19T05:20:52;97909.91;;;18.87;79.17
81909;BME280;71372;43.514;1.512;2023-10-19T05:23:25;97911.41;;;18.90;79.18
81909;BME280;71372;43.514;1.512;2023-10-19T05:26:00;97906.84;;;18.90;78.83
81909;BME280;71372;43.514;1.512;2023-10-19T05:28:26;97909.25;;;18.85;79.15
81909;BME280;71372;43.514;1.512;2023-10-19T05:30:52;97902.00;;;18.86;79.01
81909;BME280;71372;43.514;1.512;2023-10-19T05:33:18;97886.66;;;18.86;78.83
81909;BME280;71372;43.514;1.512;2023-10-19T05:35:50;97888.53;;;18.86;78.98
81909;BME280;71372;43.514;1.512;2023-10-19T05:38:17;97888.03;;;18.82;79.10
81909;BME280;71372;43.514;1.512;2023-10-19T05:40:45;97875.56;;;18.81;79.22
81909;BME280;71372;43.514;1.512;2023-10-19T05:43:11;97859.56;;;18.80;78.91
81909;BME280;71372;43.514;1.512;2023-10-19T05:45:38;97858.44;;;18.74;79.05
81909;BME280;71372;43.514;1.512;2023-10-19T05:48:04;97848.38;;;18.68;79.52
81909;BME280;71372;43.514;1.512;2023-10-19T05:50:35;97833.22;;;18.67;79.17
81909;BME280;71372;43.514;1.512;2023-10-19T05:53:03;97820.44;;;18.61;79.49
81909;BME280;71372;43.514;1.512;2023-10-19T05:55:29;97819.59;;;18.60;79.51
81909;BME280;71372;43.514;1.512;2023-10-19T05:57:55;97831.56;;;18.58;79.62
81909;BME280;71372;43.514;1.512;2023-10-19T06:00:21;97804.97;;;18.55;79.58
81909;BME280;71372;43.514;1.512;2023-10-19T06:02:51;97778.41;;;18.52;79.86
81909;BME280;71372;43.514;1.512;2023-10-19T06:05:18;97779.41;;;18.51;79.87
81909;BME280;71372;43.514;1.512;2023-10-19T06:07:45;97790.38;;;18.49;79.91
81909;BME280;71372;43.514;1.512;2023-10-19T06:10:30;97795.63;;;18.42;80.26
81909;BME280;71372;43.514;1.512;2023-10-19T06:12:57;97798.97;;;18.45;80.32
81909;BME280;71372;43.514;1.512;2023-10-19T06:15:23;97790.72;;;18.46;80.18
81909;BME280;71372;43.514;1.512;2023-10-19T06:17:50;97777.94;;;18.48;79.79
81909;BME280;71372;43.514;1.512;2023-10-19T06:20:17;97775.38;;;18.47;80.02
81909;BME280;71372;43.514;1.512;2023-10-19T06:22:56;97778.06;;;18.47;79.88
81909;BME280;71372;43.514;1.512;2023-10-19T06:25:24;97789.41;;;18.42;80.11
81909;BME280;71372;43.514;1.512;2023-10-19T06:27:51;97787.72;;;18.41;80.18
81909;BME280;71372;43.514;1.512;2023-10-19T06:30:18;97784.00;;;18.42;80.27
81909;BME280;71372;43.514;1.512;2023-10-19T06:32:49;97779.66;;;18.41;80.09
81909;BME280;71372;43.514;1.512;2023-10-19T06:35:19;97784.56;;;18.37;80.30
81909;BME280;71372;43.514;1.512;2023-10-19T06:37:46;97796.00;;;18.39;80.17
81909;BME280;71372;43.514;1.512;2023-10-19T06:40:13;97802.03;;;18.41;79.99
81909;BME280;71372;43.514;1.512;2023-10-19T06:42:46;97813.97;;;18.47;80.16
81909;BME280;71372;43.514;1.512;2023-10-19T06:45:13;97825.88;;;18.53;80.13
81909;BME280;71372;43.514;1.512;2023-10-19T06:47:47;97814.56;;;18.57;79.92
81909;BME280;71372;43.514;1.512;2023-10-19T06:50:15;97830.88;;;18.64;79.63
81909;BME280;71372;43.514;1.512;2023-10-19T06:52:43;97830.34;;;18.68;79.84
81909;BME280;71372;43.514;1.512;2023-10-19T06:55:10;97843.94;;;18.75;79.59
81909;BME280;71372;43.514;1.512;2023-10-19T06:57:43;97831.78;;;18.79;79.46
81909;BME280;71372;43.514;1.512;2023-10-19T07:00:12;97832.09;;;18.84;79.57
81909;BME280;71372;43.514;1.512;2023-10-19T07:02:46;97821.94;;;18.86;79.46
81909;BME280;71372;43.514;1.512;2023-10-19T07:05:13;97812.53;;;18.82;79.48
81909;BME280;71372;43.514;1.512;2023-10-19T07:07:51;97813.13;;;18.92;79.42
81909;BME280;71372;43.514;1.512;2023-10-19T07:10:19;97802.66;;;18.97;79.09
81909;BME280;71372;43.514;1.512;2023-10-19T07:12:51;97806.63;;;19.02;79.11
81909;BME280;71372;43.514;1.512;2023-10-19T07:15:17;97813.34;;;19.06;79.09
81909;BME280;71372;43.514;1.512;2023-10-19T07:17:48;97819.69;;;19.13;78.75
81909;BME280;71372;43.514;1.512;2023-10-19T07:20:16;97818.97;;;19.19;78.60
81909;BME280;71372;43.514;1.512;2023-10-19T07:22:52;97828.00;;;19.26;78.33
81909;BME280;71372;43.514;1.512;2023-10-19T07:25:18;97825.88;;;19.36;78.38
81909;BME280;71372;43.514;1.512;2023-10-19T07:27:48;97823.44;;;19.41;77.96
81909;BME280;71372;43.514;1.512;2023-10-19T07:30:19;97817.31;;;19.47;77.99
81909;BME280;71372;43.514;1.512;2023-10-19T07:32:52;97816.94;;;19.50;78.00
81909;BME280;71372;43.514;1.512;2023-10-19T07:35:24;97822.72;;;19.47;77.82
81909;BME280;71372;43.514;1.512;2023-10-19T07:37:54;97815.41;;;19.56;77.36
81909;BME280;71372;43.514;1.512;2023-10-19T07:40:22;97810.09;;;19.63;77.47
81909;BME280;71372;43.514;1.512;2023-10-19T07:42:49;97821.19;;;19.68;77.28
81909;BME280;71372;43.514;1.512;2023-10-19T07:45:18;97825.16;;;19.72;77.13
81909;BME280;71372;43.514;1.512;2023-10-19T07:47:44;97818.38;;;19.76;76.97
81909;BME280;71372;43.514;1.512;2023-10-19T07:50:11;97819.09;;;19.84;76.92
81909;BME280;71372;43.514;1.512;2023-10-19T07:52:42;97828.97;;;19.92;76.60
81909;BME280;71372;43.514;1.512;2023-10-19T07:55:09;97840.44;;;19.94;76.46
81909;BME280;71372;43.514;1.512;2023-10-19T07:57:36;97848.59;;;20.01;76.43
81909;BME280;71372;43.514;1.512;2023-10-19T08:00:02;97850.31;;;20.02;76.35
81909;BME280;71372;43.514;1.512;2023-10-19T08:02:29;97864.25;;;20.05;76.17
81909;BME280;71372;43.514;1.512;2023-10-19T08:04:56;97876.47;;;20.01;76.21
81909;BME280;71372;43.514;1.512;2023-10-19T08:07:22;97887.28;;;20.01;76.24
81909;BME280;71372;43.514;1.512;2023-10-19T08:09:48;97878.16;;;20.02;76.14
81909;BME280;71372;43.514;1.512;2023-10-19T08:12:14;97876.75;;;20.06;76.05
81909;BME280;71372;43.514;1.512;2023-10-19T08:14:40;97874.78;;;20.15;75.89
81909;BME280;71372;43.514;1.512;2023-10-19T08:17:06;97877.66;;;20.28;75.72
81909;BME280;71372;43.514;1.512;2023-10-19T08:19:34;97873.63;;;20.39;75.48
81909;BME280;71372;43.514;1.512;2023-10-19T08:22:01;97875.47;;;20.53;75.22
81909;BME280;71372;43.514;1.512;2023-10-19T08:24:27;97873.31;;;20.63;75.00
81909;BME280;71372;43.514;1.512;2023-10-19T08:26:56;97851.53;;;20.71;74.54
81909;BME280;71372;43.514;1.512;2023-10-19T08:29:22;97835.78;;;20.75;74.61
81909;BME280;71372;43.514;1.512;2023-10-19T08:31:49;97843.69;;;20.77;74.59
81909;BME280;71372;43.514;1.512;2023-10-19T08:34:15;97853.88;;;20.75;74.29
81909;BME280;71372;43.514;1.512;2023-10-19T08:36:43;97854.13;;;20.80;74.43
81909;BME280;71372;43.514;1.512;2023-10-19T08:39:09;97851.22;;;20.81;74.38
81909;BME280;71372;43.514;1.512;2023-10-19T08:41:38;97845.44;;;20.84;74.25
81909;BME280;71372;43.514;1.512;2023-10-19T08:44:05;97836.09;;;20.65;73.99
81909;BME280;71372;43.514;1.512;2023-10-19T08:46:42;97831.78;;;20.71;74.12
81909;BME280;71372;43.514;1.512;2023-10-19T08:49:18;97826.31;;;20.64;74.50
81909;BME280;71372;43.514;1.512;2023-10-19T08:51:46;97824.66;;;20.63;74.36
81909;BME280;71372;43.514;1.512;2023-10-19T08:54:13;97826.72;;;20.47;74.64
81909;BME280;71372;43.514;1.512;2023-10-19T08:56:40;97824.72;;;20.49;74.70
81909;BME280;71372;43.514;1.512;2023-10-19T08:59:10;97802.22;;;20.48;74.61
81909;BME280;71372;43.514;1.512;2023-10-19T09:01:37;97800.66;;;20.39;74.88
81909;BME280;71372;43.514;1.512;2023-10-19T09:04:04;97796.28;;;20.38;74.97
81909;BME280;71372;43.514;1.512;2023-10-19T09:06:34;97792.66;;;20.31;75.05
81909;BME280;71372;43.514;1.512;2023-10-19T09:09:13;97796.13;;;20.25;75.28
81909;BME280;71372;43.514;1.512;2023-10-19T09:11:51;97790.53;;;20.26;75.36
81909;BME280;71372;43.514;1.512;2023-10-19T09:14:34;97797.22;;;20.30;75.06
81909;BME280;71372;43.514;1.512;2023-10-19T09:17:02;97802.25;;;20.33;75.08
81909;BME280;71372;43.514;1.512;2023-10-19T09:19:36;97802.53;;;20.38;75.00
81909;BME280;71372;43.514;1.512;2023-10-19T09:22:03;97790.19;;;20.36;75.05
81909;BME280;71372;43.514;1.512;2023-10-19T09:24:37;97799.44;;;20.41;74.86
81909;BME280;71372;43.514;1.512;2023-10-19T09:27:03;97798.88;;;20.46;75.01
81909;BME280;71372;43.514;1.512;2023-10-19T09:29:30;97796.25;;;20.53;74.85
81909;BME280;71372;43.514;1.512;2023-10-19T09:32:00;97794.63;;;20.58;74.66
81909;BME280;71372;43.514;1.512;2023-10-19T09:34:30;97791.38;;;20.63;74.70
81909;BME280;71372;43.514;1.512;2023-10-19T09:37:04;97782.72;;;20.53;74.68
81909;BME280;71372;43.514;1.512;2023-10-19T09:39:30;97776.72;;;20.57;74.59
81909;BME280;71372;43.514;1.512;2023-10-19T09:42:07;97774.66;;;20.59;74.42
81909;BME280;71372;43.514;1.512;2023-10-19T09:44:41;97777.13;;;20.54;74.61
81909;BME280;71372;43.514;1.512;2023-10-19T09:47:29;97779.63;;;20.56;74.56
81909;BME280;71372;43.514;1.512;2023-10-19T09:49:57;97768.38;;;20.52;74.67
81909;BME280;71372;43.514;1.512;2023-10-19T09:52:23;97771.28;;;20.51;74.86
81909;BME280;71372;43.514;1.512;2023-10-19T09:54:59;97781.25;;;20.50;74.45
81909;BME280;71372;43.514;1.512;2023-10-19T09:57:49;97769.13;;;20.46;74.89
81909;BME280;71372;43.514;1.512;2023-10-19T10:00:17;97766.72;;;20.51;74.92
81909;BME280;71372;43.514;1.512;2023-10-19T10:02:50;97748.03;;;20.56;74.93
81909;BME280;71372;43.514;1.512;2023-10-19T10:10:46;97722.78;;;20.70;74.52
81909;BME280;71372;43.514;1.512;2023-10-19T10:15:54;97717.63;;;20.76;74.46
81909;BME280;71372;43.514;1.512;2023-10-19T10:18:29;97710.78;;;20.80;74.39
81909;BME280;71372;43.514;1.512;2023-10-19T10:21:11;97707.34;;;20.92;73.93
81909;BME280;71372;43.514;1.512;2023-10-19T10:23:42;97698.25;;;21.00;74.09
81909;BME280;71372;43.514;1.512;2023-10-19T10:26:12;97711.44;;;21.10;73.99
81909;BME280;71372;43.514;1.512;2023-10-19T10:28:40;97695.22;;;21.16;73.84
81909;BME280;71372;43.514;1.512;2023-10-19T10:31:08;97688.75;;;21.17;73.64
81909;BME280;71372;43.514;1.512;2023-10-19T10:33:39;97673.66;;;21.29;73.34
81909;BME280;71372;43.514;1.512;2023-10-19T10:36:06;97660.84;;;21.45;73.23
81909;BME280;71372;43.514;1.512;2023-10-19T10:38:34;97678.19;;;21.57;73.09
81909;BME280;71372;43.514;1.512;2023-10-19T10:41:01;97673.84;;;21.69;72.75
81909;BME280;71372;43.514;1.512;2023-10-19T10:43:27;97667.66;;;21.88;72.64
81909;BME280;71372;43.514;1.512;2023-10-19T10:46:13;97666.66;;;22.03;71.52
81909;BME280;71372;43.514;1.512;2023-10-19T10:48:42;97674.84;;;22.16;71.08
81909;BME280;71372;43.514;1.512;2023-10-19T10:51:19;97664.00;;;22.16;70.52
81909;BME280;71372;43.514;1.512;2023-10-19T10:53:47;97674.44;;;22.32;70.88
81909;BME280;71372;43.514;1.512;2023-10-19T10:56:14;97670.28;;;22.50;70.60
81909;BME280;71372;43.514;1.512;2023-10-19T10:58:39;97662.97;;;22.63;70.31
81909;BME280;71372;43.514;1.512;2023-10-19T11:01:07;97642.72;;;22.92;69.50
81909;BME280;71372;43.514;1.512;2023-10-19T11:03:33;97625.34;;;23.07;69.44
81909;BME280;71372;43.514;1.512;2023-10-19T11:06:06;97617.75;;;23.35;68.09
81909;BME280;71372;43.514;1.512;2023-10-19T11:08:34;97621.63;;;23.52;67.56
81909;BME280;71372;43.514;1.512;2023-10-19T11:11:08;97626.63;;;23.55;67.10
81909;BME280;71372;43.514;1.512;2023-10-19T11:13:38;97611.53;;;23.73;66.98
81909;BME280;71372;43.514;1.512;2023-10-19T11:16:06;97599.78;;;23.79;66.10
81909;BME280;71372;43.514;1.512;2023-10-19T11:18:40;97612.34;;;23.80;65.69
81909;BME280;71372;43.514;1.512;2023-10-19T11:21:10;97616.91;;;23.79;65.80
81909;BME280;71372;43.514;1.512;2023-10-19T11:23:41;97620.13;;;24.01;65.66
81909;BME280;71372;43.514;1.512;2023-10-19T11:26:12;97612.81;;;24.27;65.34
81909;BME280;71372;43.514;1.512;2023-10-19T11:28:39;97605.84;;;24.44;64.55
81909;BME280;71372;43.514;1.512;2023-10-19T11:31:18;97598.47;;;24.51;63.79
81909;BME280;71372;43.514;1.512;2023-10-19T11:33:46;97580.78;;;24.60;63.83
81909;BME280;71372;43.514;1.512;2023-10-19T11:36:15;97552.34;;;24.56;63.49
81909;BME280;71372;43.514;1.512;2023-10-19T11:38:44;97543.06;;;24.64;63.46
81909;BME280;71372;43.514;1.512;2023-10-19T11:41:14;97535.06;;;24.69;62.94
81909;BME280;71372;43.514;1.512;2023-10-19T11:43:42;97534.28;;;24.62;62.68
81909;BME280;71372;43.514;1.512;2023-10-19T11:46:09;97535.81;;;24.58;62.82
81909;BME280;71372;43.514;1.512;2023-10-19T11:48:36;97534.19;;;24.50;62.76
81909;BME280;71372;43.514;1.512;2023-10-19T11:51:03;97528.09;;;24.55;62.85
81909;BME280;71372;43.514;1.512;2023-10-19T11:53:33;97515.09;;;24.57;62.17
81909;BME280;71372;43.514;1.512;2023-10-19T11:56:04;97520.16;;;24.53;62.43
81909;BME280;71372;43.514;1.512;2023-10-19T11:58:35;97511.78;;;24.55;62.16
81909;BME280;71372;43.514;1.512;2023-10-19T12:01:03;97506.47;;;24.60;62.07
81909;BME280;71372;43.514;1.512;2023-10-19T12:03:38;97494.31;;;24.62;62.21
81909;BME280;71372;43.514;1.512;2023-10-19T12:06:09;97496.19;;;24.62;61.86
81909;BME280;71372;43.514;1.512;2023-10-19T12:08:36;97493.38;;;24.50;61.70
81909;BME280;71372;43.514;1.512;2023-10-19T12:11:04;97493.69;;;24.60;61.54
81909;BME280;71372;43.514;1.512;2023-10-19T12:13:31;97482.31;;;24.52;61.38
81909;BME280;71372;43.514;1.512;2023-10-19T12:15:58;97476.94;;;24.63;61.32
81909;BME280;71372;43.514;1.512;2023-10-19T12:18:25;97454.72;;;24.66;61.23
81909;BME280;71372;43.514;1.512;2023-10-19T12:20:54;97481.31;;;24.64;61.09
81909;BME280;71372;43.514;1.512;2023-10-19T12:23:26;97472.53;;;24.62;60.86
81909;BME280;71372;43.514;1.512;2023-10-19T12:25:52;97444.28;;;24.63;60.85
81909;BME280;71372;43.514;1.512;2023-10-19T12:28:18;97458.19;;;24.55;60.83
81909;BME280;71372;43.514;1.512;2023-10-19T12:30:44;97466.50;;;24.60;60.74
81909;BME280;71372;43.514;1.512;2023-10-19T12:33:10;97447.06;;;24.57;60.78
81909;BME280;71372;43.514;1.512;2023-10-19T12:35:40;97446.72;;;24.53;60.91
81909;BME280;71372;43.514;1.512;2023-10-19T12:38:14;97440.56;;;24.58;60.76
81909;BME280;71372;43.514;1.512;2023-10-19T12:40:44;97455.00;;;24.58;60.86
81909;BME280;71372;43.514;1.512;2023-10-19T12:43:12;97459.84;;;24.56;60.88
81909;BME280;71372;43.514;1.512;2023-10-19T12:45:39;97443.38;;;24.51;60.31
81909;BME280;71372;43.514;1.512;2023-10-19T12:48:06;97410.56;;;24.46;60.48
81909;BME280;71372;43.514;1.512;2023-10-19T12:50:35;97416.47;;;24.43;60.49
81909;BME280;71372;43.514;1.512;2023-10-19T12:53:02;97432.31;;;24.28;60.54
81909;BME280;71372;43.514;1.512;2023-10-19T12:55:29;97442.56;;;24.26;60.60
81909;BME280;71372;43.514;1.512;2023-10-19T12:57:57;97438.31;;;24.11;60.83
81909;BME280;71372;43.514;1.512;2023-10-19T13:00:23;97428.97;;;24.07;60.79
81909;BME280;71372;43.514;1.512;2023-10-19T13:02:50;97422.75;;;24.00;60.87
81909;BME280;71372;43.514;1.512;2023-10-19T13:05:16;97430.88;;;23.82;61.49
81909;BME280;71372;43.514;1.512;2023-10-19T13:07:44;97446.25;;;23.70;61.57
81909;BME280;71372;43.514;1.512;2023-10-19T13:10:10;97444.41;;;23.63;61.92
81909;BME280;71372;43.514;1.512;2023-10-19T13:12:39;97452.28;;;23.72;62.14
81909;BME280;71372;43.514;1.512;2023-10-19T13:15:06;97445.94;;;23.78;62.25
81909;BME280;71372;43.514;1.512;2023-10-19T13:17:39;97439.47;;;23.79;61.99
81909;BME280;71372;43.514;1.512;2023-10-19T13:20:07;97433.19;;;23.78;62.04